Time;durP1;ratioP1;P1;durP2;ratioP2;P2;SDS_P1;SDS_P2;PMS_P1;PMS_P2;Temp;Humidity;BMP_temperature;BMP_pressure;BME280_temperature;BME280_humidity;BME280_pressure;Samples;Min_cycle;Max_cycle;Signal;HPM_P1;HPM_P2
2023/07/10 00:03:43;;;;;;;5.22;2.47;;;22.40;65.40;;;21.21;53.54;100431.66;12321551;23;96585;-88
2023/07/10 00:08:47;;;;;;;4.05;2.80;;;22.20;66.00;;;21.08;54.54;100435.38;12347313;23;96461;-87
2023/07/10 00:13:50;;;;;;;5.80;2.40;;;22.10;66.70;;;20.91;55.12;100429.81;12345682;23;96751;-88
2023/07/10 00:18:55;;;;;;;4.28;2.60;;;21.90;67.20;;;20.79;54.72;100439.75;12345347;23;96494;-87
2023/07/10 00:23:58;;;;;;;3.90;2.95;;;21.80;67.10;;;20.74;54.58;100440.44;12343544;23;97167;-87
2023/07/10 00:29:23;;;;;;;4.43;2.60;;;21.70;66.90;;;20.74;54.69;100445.00;12343602;23;96762;-87
2023/07/10 00:34:28;;;;;;;3.60;2.45;;;21.70;67.50;;;20.62;54.84;100436.03;12344558;23;96590;-87
2023/07/10 00:39:35;;;;;;;5.63;2.45;;;21.60;67.20;;;20.60;55.31;100438.16;12366557;23;96400;-87
2023/07/10 00:44:57;;;;;;;4.65;2.15;;;21.50;67.50;;;20.52;55.74;100442.81;12346094;23;96617;-87
2023/07/10 00:50:39;;;;;;;4.07;2.75;;;21.40;67.70;;;20.44;56.64;100453.06;12342196;23;96710;-87
2023/07/10 00:55:44;;;;;;;5.28;2.72;;;21.30;68.60;;;20.31;56.83;100432.44;12309571;23;96556;-87
2023/07/10 01:01:10;;;;;;;3.35;2.22;;;21.30;68.40;;;20.23;57.44;100441.69;12335540;23;97120;-87
2023/07/10 01:06:31;;;;;;;4.65;3.08;;;21.10;68.80;;;20.09;58.20;100442.91;12364195;23;96495;-87
2023/07/10 01:11:37;;;;;;;3.90;2.63;;;21.00;69.50;;;19.97;59.00;100445.50;12343138;23;96869;-88
2023/07/10 01:16:40;;;;;;;4.25;2.70;;;20.90;70.20;;;19.91;59.79;100443.69;12343546;23;96514;-88
2023/07/10 01:21:45;;;;;;;3.13;2.53;;;20.80;70.50;;;19.87;60.15;100438.97;12344384;23;96518;-88
2023/07/10 01:26:49;;;;;;;4.05;2.90;;;20.70;70.90;;;19.83;60.53;100438.56;12342822;23;96533;-88
2023/07/10 01:31:55;;;;;;;6.07;3.42;;;20.70;71.40;;;19.78;61.53;100435.72;12342788;23;96422;-88
2023/07/10 01:37:00;;;;;;;3.78;2.67;;;20.70;72.10;;;19.76;61.91;100437.81;12321520;23;96644;-87
2023/07/10 01:42:04;;;;;;;4.85;2.90;;;20.70;72.40;;;19.68;62.45;100441.63;12320392;23;96917;-88
2023/07/10 01:47:10;;;;;;;5.65;3.80;;;20.60;72.80;;;19.58;63.42;100444.00;12342715;23;96675;-87
2023/07/10 01:52:17;;;;;;;5.07;2.90;;;20.50;73.50;;;19.53;63.87;100449.19;12343504;23;96814;-88
2023/07/10 01:57:25;;;;;;;5.03;2.97;;;20.50;73.80;;;19.44;64.02;100445.97;12342359;23;96426;-87
2023/07/10 02:02:29;;;;;;;4.80;2.80;;;20.40;74.20;;;19.35;64.91;100451.84;12342796;23;97057;-87
2023/07/10 02:07:33;;;;;;;3.15;2.47;;;20.20;74.60;;;19.23;65.40;100446.31;12343839;23;96826;-88
2023/07/10 02:12:36;;;;;;;5.43;3.13;;;20.10;75.20;;;19.14;65.55;100450.34;12320109;23;96546;-87
2023/07/10 02:17:40;;;;;;;7.05;3.30;;;20.00;75.60;;;19.06;66.43;100437.13;12341778;23;96413;-87
2023/07/10 02:22:44;;;;;;;5.35;3.47;;;20.00;76.00;;;19.01;66.42;100440.44;12343292;23;97282;-87
2023/07/10 02:27:47;;;;;;;5.07;3.35;;;19.90;76.20;;;18.94;67.77;100436.97;12342260;23;96539;-87
2023/07/10 02:32:51;;;;;;;4.78;3.60;;;19.80;76.70;;;18.87;67.94;100444.28;12319704;23;96545;-87
2023/07/10 02:37:54;;;;;;;4.30;2.80;;;19.80;77.20;;;18.78;69.11;100443.72;12343545;23;96455;-87
2023/07/10 02:42:58;;;;;;;7.30;3.45;;;19.70;77.70;;;18.69;69.49;100447.69;12344616;23;96503;-87
2023/07/10 02:48:02;;;;;;;6.40;4.45;;;19.60;78.20;;;18.60;69.99;100446.28;12351506;23;96817;-87
2023/07/10 02:53:06;;;;;;;10.10;4.95;;;19.50;78.60;;;18.55;70.40;100443.41;12346626;23;97111;-87
2023/07/10 02:58:10;;;;;;;7.65;3.60;;;19.50;79.00;;;18.54;71.06;100441.75;12320364;23;96914;-87
2023/07/10 03:03:13;;;;;;;4.53;3.50;;;19.40;79.40;;;18.52;71.64;100443.81;12322575;23;96431;-87
2023/07/10 03:08:17;;;;;;;4.10;2.92;;;19.40;79.80;;;18.48;71.70;100440.72;12369343;23;96561;-87
2023/07/10 03:13:20;;;;;;;7.03;3.42;;;19.40;80.10;;;18.44;72.39;100443.00;12341850;23;96474;-87
2023/07/10 03:18:24;;;;;;;7.40;3.70;;;19.30;80.60;;;18.42;73.11;100436.19;12342921;23;97012;-87
2023/07/10 03:23:28;;;;;;;11.30;3.70;;;19.30;81.00;;;18.42;72.84;100441.59;12319835;23;96535;-87
2023/07/10 03:28:37;;;;;;;4.72;3.20;;;19.30;81.20;;;18.46;73.21;100437.41;12342785;23;96393;-87
2023/07/10 03:33:41;;;;;;;6.95;3.38;;;19.40;81.40;;;18.49;73.29;100437.00;12342613;23;96891;-87
2023/07/10 03:38:45;;;;;;;5.28;3.45;;;19.40;81.60;;;18.46;72.94;100430.16;12341882;23;96426;-87
2023/07/10 03:43:49;;;;;;;8.75;3.67;;;19.40;81.70;;;18.55;73.40;100429.94;12368040;23;96472;-87
2023/07/10 03:48:53;;;;;;;5.53;3.22;;;19.50;82.10;;;18.61;74.15;100437.16;12341599;23;96824;-87
2023/07/10 03:53:57;;;;;;;8.32;3.88;;;19.50;82.40;;;18.67;74.08;100428.25;12342874;23;96756;-88
2023/07/10 03:59:01;;;;;;;5.85;3.15;;;19.60;82.80;;;18.73;75.46;100427.38;12341322;23;96401;-87
2023/07/10 04:04:05;;;;;;;7.78;3.33;;;19.60;83.40;;;18.82;75.02;100431.47;12341581;23;96735;-87
2023/07/10 04:09:10;;;;;;;6.13;3.97;;;19.70;83.60;;;18.95;75.59;100436.78;12366621;23;98333;-87
2023/07/10 04:14:14;;;;;;;6.55;3.70;;;19.80;84.30;;;19.10;76.17;100436.47;12319743;23;96430;-87
2023/07/10 04:19:18;;;;;;;10.63;3.42;;;20.00;84.70;;;19.25;76.91;100436.13;12341247;23;96520;-87
2023/07/10 04:24:22;;;;;;;5.53;3.38;;;20.10;85.10;;;19.38;77.14;100435.25;12341738;23;96515;-86
2023/07/10 04:29:25;;;;;;;8.35;3.47;;;20.20;85.40;;;19.50;76.57;100433.47;12319269;23;96624;-86
2023/07/10 04:34:29;;;;;;;7.60;3.50;;;20.30;85.40;;;19.64;76.51;100428.81;12340317;23;96958;-86
2023/07/10 04:39:33;;;;;;;7.28;3.83;;;20.50;85.60;;;19.86;75.87;100437.31;12342049;23;96573;-86
2023/07/10 04:44:37;;;;;;;5.75;3.78;;;20.70;85.70;;;20.08;76.80;100440.41;12341206;23;96649;-86
2023/07/10 04:49:40;;;;;;;5.47;2.97;;;20.90;86.10;;;20.27;77.25;100428.53;12338879;23;96546;-87
2023/07/10 04:54:44;;;;;;;6.18;3.63;;;21.10;86.20;;;20.42;76.20;100431.69;12343292;23;96915;-87
2023/07/10 04:59:47;;;;;;;6.63;4.30;;;21.30;85.80;;;20.61;74.53;100434.41;12343646;23;96634;-90
2023/07/10 05:04:51;;;;;;;6.25;3.03;;;21.40;85.70;;;20.75;74.42;100435.84;12319688;23;96641;-89
2023/07/10 05:09:55;;;;;;;5.45;3.47;;;21.50;85.70;;;20.90;74.09;100438.97;12342636;23;97018;-89
2023/07/10 05:14:58;;;;;;;5.80;3.22;;;21.70;85.70;;;21.04;73.75;100447.69;12321323;23;96524;-89
2023/07/10 05:20:02;;;;;;;3.65;2.78;;;21.90;85.70;;;21.23;72.61;100443.91;12320705;23;96508;-89
2023/07/10 05:25:08;;;;;;;3.53;2.30;;;22.00;84.60;;;21.43;68.85;100438.19;12343942;23;96477;-87
2023/07/10 05:30:12;;;;;;;5.40;3.78;;;22.20;83.30;;;21.61;68.33;100435.38;12343226;23;96470;-87
2023/07/10 05:35:15;;;;;;;7.43;3.50;;;22.40;82.80;;;21.87;68.11;100450.31;12342534;23;96787;-87
2023/07/10 05:40:19;;;;;;;4.68;2.88;;;22.70;82.60;;;22.05;65.10;100437.72;12319970;23;97488;-88
2023/07/10 05:45:23;;;;;;;6.82;3.45;;;22.90;81.00;;;22.30;63.11;100437.47;12341847;23;96778;-87
2023/07/10 05:50:27;;;;;;;6.40;3.72;;;23.10;80.00;;;22.49;62.82;100425.41;12328273;23;96463;-87
2023/07/10 05:55:31;;;;;;;4.70;3.38;;;23.40;78.60;;;22.79;61.01;100435.16;12342003;23;96932;-88
2023/07/10 06:00:34;;;;;;;5.43;3.47;;;23.60;77.40;;;23.00;60.79;100434.50;12320516;23;97080;-88
2023/07/10 06:05:38;;;;;;;12.13;3.67;;;23.80;76.80;;;23.26;59.23;100438.47;12352169;23;96755;-87
2023/07/10 06:10:42;;;;;;;10.50;3.80;;;24.10;75.80;;;23.41;58.64;100418.94;12374999;23;96439;-88
2023/07/10 06:15:48;;;;;;;12.55;3.60;;;24.30;75.30;;;23.71;58.62;100426.75;12320092;23;96696;-87
2023/07/10 06:21:00;;;;;;;9.18;3.40;;;24.50;75.20;;;23.89;57.61;100410.19;12339692;23;97138;-88
2023/07/10 06:26:04;;;;;;;10.00;3.70;;;24.80;74.40;;;24.07;56.20;100419.94;12365183;23;96441;-87
2023/07/10 06:31:11;;;;;;;16.95;4.00;;;25.00;73.70;;;24.30;56.46;100419.69;12337293;23;96688;-88
2023/07/10 06:36:15;;;;;;;12.00;4.03;;;25.10;73.70;;;24.52;56.35;100410.72;12343242;23;96654;-88
2023/07/10 06:41:19;;;;;;;9.27;4.15;;;25.40;72.90;;;24.73;55.70;100412.59;12342961;23;96477;-88
2023/07/10 06:46:24;;;;;;;11.48;4.25;;;25.60;72.70;;;24.94;55.45;100408.16;12342810;23;96570;-88
2023/07/10 06:51:29;;;;;;;5.82;3.75;;;25.80;72.50;;;25.16;54.98;100405.41;12343195;23;96565;-88
2023/07/10 06:56:34;;;;;;;5.47;3.33;;;26.10;72.00;;;25.40;54.45;100407.75;12346411;23;96620;-88
2023/07/10 07:01:38;;;;;;;4.50;3.70;;;26.30;72.00;;;25.69;54.69;100400.06;12349635;23;96821;-87
2023/07/10 07:06:42;;;;;;;7.60;3.65;;;26.50;72.30;;;25.99;54.08;100402.19;12343472;23;96609;-88
2023/07/10 07:11:45;;;;;;;8.20;3.65;;;26.80;71.60;;;26.24;53.54;100391.38;12319051;23;96648;-88
2023/07/10 07:16:49;;;;;;;68.25;10.50;;;27.10;71.20;;;26.53;53.96;100375.44;12318563;23;97375;-89
2023/07/10 07:21:53;;;;;;;7.95;3.90;;;27.40;71.30;;;26.83;53.14;100371.94;12363881;23;97098;-88
2023/07/10 07:26:57;;;;;;;6.13;3.65;;;27.60;71.00;;;27.11;54.32;100376.06;12342419;23;96454;-88
2023/07/10 07:32:01;;;;;;;11.27;3.50;;;27.90;71.40;;;27.41;53.23;100364.31;12340777;23;96533;-89
2023/07/10 07:37:05;;;;;;;8.10;3.83;;;28.30;71.30;;;27.78;52.23;100351.44;12341663;23;96981;-89
2023/07/10 07:42:09;;;;;;;13.27;4.95;;;28.70;70.60;;;28.11;52.07;100356.19;12342897;23;97263;-89
2023/07/10 07:47:13;;;;;;;8.00;3.75;;;29.00;70.40;;;28.45;51.42;100358.25;12341385;23;97086;-88
2023/07/10 07:52:17;;;;;;;10.63;4.10;;;29.30;70.30;;;28.76;51.17;100356.94;12341872;23;96470;-89
2023/07/10 07:57:22;;;;;;;11.30;3.70;;;29.60;69.90;;;29.08;51.17;100360.25;12342744;23;96494;-88
2023/07/10 08:02:27;;;;;;;10.13;3.70;;;29.90;69.80;;;29.37;46.03;100350.13;12342159;23;96483;-89
2023/07/10 08:07:30;;;;;;;5.03;3.50;;;30.20;67.40;;;29.64;43.71;100346.06;12341631;23;96707;-88
2023/07/10 08:12:43;;;;;;;5.50;3.47;;;30.40;64.20;;;29.83;43.93;100342.28;12321188;23;96755;-88
2023/07/10 08:17:46;;;;;;;7.43;3.85;;;30.60;63.40;;;30.05;43.29;100338.19;12317957;23;96504;-87
2023/07/10 08:23:07;;;;;;;4.22;3.30;;;30.70;63.60;;;30.16;43.28;100325.16;12345016;23;96435;-88
2023/07/10 08:28:10;;;;;;;8.18;3.58;;;30.90;63.10;;;30.34;42.62;100316.94;12344070;23;96525;-88
2023/07/10 08:33:17;;;;;;;7.57;3.67;;;31.10;62.60;;;30.49;41.89;100309.63;12355434;23;96641;-88
2023/07/10 08:38:20;;;;;;;6.28;3.92;;;31.20;62.10;;;30.62;41.36;100309.66;12343880;23;96449;-87
2023/07/10 08:43:34;;;;;;;6.03;3.40;;;31.40;61.10;;;30.71;41.47;100301.63;12348980;23;96549;-88
2023/07/10 08:48:42;;;;;;;5.75;3.25;;;31.50;61.30;;;30.92;41.28;100302.06;12345161;23;96578;-87
2023/07/10 08:54:11;;;;;;;8.48;4.07;;;31.60;61.20;;;30.99;40.32;100297.00;12344577;23;96437;-87
2023/07/10 08:59:40;;;;;;;4.47;3.53;;;31.70;60.00;;;31.10;40.77;100295.72;12343382;23;96616;-87
2023/07/10 09:04:50;;;;;;;4.40;3.58;;;31.80;60.00;;;31.17;40.14;100293.38;12366478;23;96397;-88
2023/07/10 09:09:59;;;;;;;6.57;3.63;;;31.90;59.70;;;31.21;40.73;100290.03;12344414;23;96536;-88
2023/07/10 09:15:26;;;;;;;7.22;3.88;;;32.00;60.10;;;31.35;40.16;100299.13;12321617;23;96907;-88
2023/07/10 09:20:30;;;;;;;6.15;3.58;;;32.10;59.50;;;31.43;39.47;100285.53;12343654;23;97062;-88
2023/07/10 09:25:37;;;;;;;5.80;3.42;;;32.20;59.10;;;31.49;40.31;100278.00;12344457;23;96511;-86
2023/07/10 09:31:20;;;;;;;5.22;3.38;;;32.20;59.70;;;31.62;39.25;100287.34;12317550;23;96886;-87
2023/07/10 09:36:24;;;;;;;4.40;3.47;;;32.20;58.70;;;31.73;38.73;100286.03;12341796;23;97178;-88
2023/07/10 09:41:30;;;;;;;6.95;3.55;;;32.40;58.50;;;31.77;38.80;100264.22;12342165;23;96503;-88
2023/07/10 09:46:38;;;;;;;6.30;4.35;;;32.40;58.40;;;31.88;39.52;100260.16;12342445;23;96522;-88
2023/07/10 09:51:58;;;;;;;6.17;3.90;;;32.60;58.90;;;31.97;38.55;100263.81;12348261;23;96498;-87
2023/07/10 09:57:14;;;;;;;5.90;3.47;;;32.70;58.10;;;32.02;38.56;100271.94;12342223;23;96646;-87
2023/07/10 10:02:21;;;;;;;5.55;3.63;;;32.70;58.00;;;32.18;40.23;100253.97;12343367;23;96403;-88
2023/07/10 10:07:47;;;;;;;6.43;3.65;;;32.90;58.90;;;32.39;39.54;100250.78;12364043;23;96582;-88
2023/07/10 10:13:32;;;;;;;4.70;3.40;;;33.10;59.00;;;32.60;38.44;100251.09;12344466;23;96925;-88
2023/07/10 10:19:22;;;;;;;4.55;3.35;;;33.30;57.80;;;32.63;36.11;100248.53;12367758;23;96395;-87
2023/07/10 10:24:33;;;;;;;3.90;3.30;;;33.40;56.10;;;32.71;36.21;100244.19;12320837;23;96796;-88
2023/07/10 10:30:03;;;;;;;4.32;3.25;;;33.40;55.90;;;32.79;36.26;100235.16;12320760;23;96500;-89
2023/07/10 10:35:30;;;;;;;3.83;3.15;;;33.50;55.60;;;32.88;35.28;100236.06;12370040;23;96365;-87
2023/07/10 10:41:41;;;;;;;5.00;3.50;;;33.60;55.20;;;32.95;35.57;100225.41;12348806;23;96759;-87
2023/07/10 10:47:43;;;;;;;10.35;3.80;;;33.60;54.80;;;33.11;34.87;100227.72;12303245;23;96601;-88
2023/07/10 10:53:30;;;;;;;5.65;3.58;;;33.80;54.40;;;33.32;34.45;100223.28;12288029;23;96658;-88
2023/07/10 10:58:45;;;;;;;6.70;3.60;;;34.00;54.20;;;33.50;34.15;100226.94;12308207;23;96508;-88
2023/07/10 11:04:03;;;;;;;4.70;3.47;;;34.20;53.70;;;33.49;32.12;100217.06;12308203;23;96466;-88
2023/07/10 11:09:41;;;;;;;4.10;3.10;;;34.20;52.20;;;33.64;32.87;100224.84;12308221;23;96494;-88
2023/07/10 11:14:50;;;;;;;4.50;3.33;;;34.30;52.70;;;33.72;33.38;100215.00;12279080;23;96704;-88
2023/07/10 11:20:15;;;;;;;7.85;4.15;;;34.50;53.10;;;33.76;34.31;100211.25;12305766;23;96618;-88
2023/07/10 11:25:35;;;;;;;4.32;3.40;;;34.50;53.40;;;33.89;33.84;100203.16;12306316;23;96592;-88
2023/07/10 11:30:39;;;;;;;7.95;3.53;;;34.70;53.50;;;34.03;30.56;100196.38;12307383;23;97165;-88
2023/07/10 11:36:13;;;;;;;5.15;3.15;;;34.80;51.20;;;34.09;30.43;100191.53;12306094;23;96492;-88
2023/07/10 11:41:44;;;;;;;4.90;2.78;;;34.90;50.00;;;34.07;28.23;100194.63;12285845;23;96584;-88
2023/07/10 11:47:05;;;;;;;4.47;2.90;;;34.90;48.30;;;34.12;27.65;100190.03;12304156;23;97141;-89
2023/07/10 11:52:18;;;;;;;3.92;2.67;;;34.90;47.30;;;34.28;28.50;100183.72;12361900;23;96714;-89
2023/07/10 11:57:34;;;;;;;5.60;2.92;;;35.00;48.00;;;34.34;26.71;100187.09;12365226;23;96458;-89
2023/07/10 12:02:51;;;;;;;4.55;3.00;;;35.10;46.80;;;34.34;26.58;100176.88;12347264;23;96505;-88
2023/07/10 12:07:57;;;;;;;4.43;2.55;;;35.10;46.40;;;34.54;27.42;100174.59;12345689;23;96764;-88
2023/07/10 12:13:29;;;;;;;4.43;2.80;;;35.40;46.40;;;34.66;27.06;100171.94;12370828;23;96419;-87
2023/07/10 12:18:40;;;;;;;4.90;2.70;;;35.60;45.90;;;34.81;27.45;100162.34;12349249;23;96709;-87
2023/07/10 12:24:02;;;;;;;5.65;3.40;;;35.90;46.70;;;34.45;27.04;100157.25;12354304;23;97763;-87
2023/07/10 12:29:13;;;;;;;7.05;3.08;;;35.50;46.00;;;33.98;27.31;100168.97;12368100;23;96464;-88
2023/07/10 12:34:30;;;;;;;5.13;2.90;;;34.90;46.30;;;33.61;28.27;100175.09;12343368;23;96727;-88
2023/07/10 12:39:34;;;;;;;5.73;2.97;;;34.50;47.00;;;33.44;28.96;100178.63;12318593;23;96886;-89
2023/07/10 12:44:44;;;;;;;5.03;3.40;;;34.30;47.70;;;33.37;30.76;100181.03;12343346;23;96469;-87
2023/07/10 12:49:54;;;;;;;6.38;3.42;;;34.10;49.10;;;33.28;31.82;100181.78;12341091;23;96897;-88
2023/07/10 12:54:57;;;;;;;5.70;3.67;;;34.00;49.80;;;33.09;31.18;100170.25;12342552;23;96535;-88
2023/07/10 13:00:08;;;;;;;6.68;3.63;;;33.80;50.00;;;33.00;32.10;100172.19;12317933;23;96541;-88
2023/07/10 13:05:30;;;;;;;6.03;3.78;;;33.70;50.70;;;32.90;31.93;100167.75;12341195;23;96570;-87
2023/07/10 13:10:43;;;;;;;7.88;3.20;;;33.60;50.40;;;32.82;31.07;100170.44;12342400;23;96772;-87
2023/07/10 13:15:48;;;;;;;5.57;3.50;;;33.60;49.60;;;32.78;31.78;100169.47;12344468;23;96900;-88
2023/07/10 13:20:52;;;;;;;5.30;3.38;;;33.50;50.30;;;32.84;31.14;100162.69;12321157;23;96443;-88
2023/07/10 13:25:56;;;;;;;5.45;3.28;;;33.50;50.00;;;32.98;31.71;100166.16;12368958;23;96407;-89
2023/07/10 13:30:59;;;;;;;4.15;3.28;;;33.70;50.30;;;33.54;32.40;100153.53;12342727;23;97391;-88
2023/07/10 13:36:15;;;;;;;5.63;3.53;;;34.20;51.00;;;34.35;31.37;100130.81;12343147;23;96504;-88
2023/07/10 13:41:22;;;;;;;3.83;3.17;;;35.00;50.60;;;35.21;29.65;100146.25;12342906;23;96454;-88
2023/07/10 13:46:31;;;;;;;4.80;3.42;;;35.70;49.60;;;35.74;27.93;100143.94;12343987;23;96584;-88
2023/07/10 13:51:36;;;;;;;4.65;3.03;;;36.20;48.50;;;36.00;28.27;100135.47;12344534;23;96734;-88
2023/07/10 13:56:46;;;;;;;3.80;2.97;;;36.20;48.20;;;36.04;26.63;100126.13;12343499;23;96567;-89
2023/07/10 14:01:51;;;;;;;5.72;3.38;;;36.40;47.20;;;36.12;26.57;100121.69;12344467;23;96589;-86
2023/07/10 14:06:55;;;;;;;3.72;2.90;;;36.40;47.10;;;36.00;26.88;100130.75;12343668;23;96514;-85
2023/07/10 14:11:59;;;;;;;5.47;2.85;;;36.30;46.70;;;35.76;26.44;100114.03;12343025;23;96690;-86
2023/07/10 14:17:03;;;;;;;6.25;3.00;;;36.20;46.50;;;35.46;27.10;100113.28;12365955;23;96534;-86
2023/07/10 14:22:11;;;;;;;3.40;2.85;;;36.10;46.70;;;35.13;26.04;100112.00;12341918;23;96734;-86
2023/07/10 14:27:21;;;;;;;3.92;2.53;;;35.90;45.80;;;34.92;26.32;100118.63;12368100;23;96410;-85
2023/07/10 14:32:26;;;;;;;3.97;2.88;;;35.60;45.40;;;34.45;26.55;100113.13;12340493;23;97067;-85
2023/07/10 14:37:30;;;;;;;5.18;2.65;;;35.20;45.40;;;34.15;27.57;100109.44;12319518;23;96867;-88
2023/07/10 14:42:34;;;;;;;6.20;2.78;;;34.80;46.20;;;34.01;29.34;100117.91;12343161;23;96513;-88
2023/07/10 14:47:38;;;;;;;3.83;2.63;;;34.70;47.40;;;34.31;29.33;100122.38;12366395;23;96712;-89
2023/07/10 14:52:43;;;;;;;4.10;2.70;;;35.10;47.70;;;34.82;29.34;100122.53;12343228;23;96547;-87
2023/07/10 14:57:47;;;;;;;4.50;2.83;;;35.80;47.50;;;35.28;27.67;100116.16;12321605;23;96440;-86
2023/07/10 15:02:52;;;;;;;3.85;2.70;;;36.50;46.90;;;35.72;26.14;100113.88;12343151;23;96631;-86
2023/07/10 15:07:57;;;;;;;6.57;2.67;;;37.00;45.30;;;35.97;25.38;100114.81;12340850;23;96959;-86
2023/07/10 15:13:12;;;;;;;5.28;2.95;;;37.20;44.60;;;35.99;26.15;100118.06;12364705;23;96621;-86
2023/07/10 15:18:22;;;;;;;4.68;2.90;;;37.10;45.10;;;35.83;25.17;100115.09;12344480;23;96616;-86
2023/07/10 15:23:31;;;;;;;4.45;2.70;;;36.80;44.70;;;35.53;26.51;100119.09;12343108;23;96506;-86
2023/07/10 15:28:35;;;;;;;4.40;2.72;;;36.40;45.10;;;35.03;27.41;100111.59;12342929;23;96916;-87
2023/07/10 15:33:42;;;;;;;6.13;2.72;;;35.80;46.00;;;34.54;27.87;100116.66;12340729;23;96847;-86
2023/07/10 15:38:46;;;;;;;6.40;2.60;;;35.30;46.40;;;34.08;29.01;100120.97;12342713;23;96538;-87
2023/07/10 15:43:51;;;;;;;5.18;2.88;;;34.90;46.80;;;33.74;29.43;100130.84;12342535;23;96602;-87
2023/07/10 15:48:54;;;;;;;5.70;2.60;;;34.50;47.60;;;33.39;30.83;100129.19;12366175;23;97548;-86
2023/07/10 15:53:58;;;;;;;5.00;2.88;;;34.10;48.30;;;33.10;31.46;100119.56;12342553;23;96514;-86
2023/07/10 15:59:15;;;;;;;5.35;2.90;;;33.80;49.00;;;32.87;32.34;100101.50;12343112;23;96436;-88
2023/07/10 16:04:24;;;;;;;7.38;2.90;;;33.50;49.70;;;32.68;32.58;100088.81;12340890;23;96406;-89
2023/07/10 16:09:28;;;;;;;4.47;3.03;;;33.30;49.60;;;32.56;31.34;100085.03;12319433;23;96518;-89
2023/07/10 16:14:34;;;;;;;4.50;2.85;;;33.20;49.10;;;32.40;31.35;100082.72;12317775;23;96811;-89
2023/07/10 16:19:37;;;;;;;6.65;3.00;;;33.10;49.30;;;32.26;32.58;100078.41;12366540;23;96614;-89
2023/07/10 16:24:42;;;;;;;5.05;2.90;;;33.00;50.30;;;32.09;33.62;100079.94;12319207;23;96533;-90
2023/07/10 16:29:46;;;;;;;4.97;3.05;;;32.80;51.20;;;32.00;34.45;100079.06;12341055;23;96567;-89
2023/07/10 16:34:53;;;;;;;6.35;3.40;;;32.70;51.50;;;31.88;34.75;100065.09;12341700;23;97251;-89
2023/07/10 16:39:57;;;;;;;3.70;2.75;;;32.60;52.00;;;31.78;35.41;100073.53;12343210;23;96494;-89
2023/07/10 16:45:01;;;;;;;5.28;2.67;;;32.50;52.40;;;31.60;35.91;100076.16;12364329;23;96469;-88
2023/07/10 16:50:05;;;;;;;7.50;2.90;;;32.30;52.90;;;31.50;36.59;100081.91;12366075;23;96652;-89
2023/07/10 16:55:22;;;;;;;5.75;3.15;;;32.20;53.60;;;31.41;38.64;100091.97;12342616;23;96523;-89
2023/07/10 17:00:28;;;;;;;6.97;3.35;;;32.10;55.20;;;31.25;39.35;100093.44;12345195;23;96767;-90
2023/07/10 17:05:32;;;;;;;9.10;3.13;;;32.00;55.70;;;31.12;39.60;100093.13;12346688;23;96840;-90
2023/07/10 17:10:37;;;;;;;8.15;3.30;;;31.80;55.80;;;31.00;39.63;100117.53;12344249;23;96791;-89
2023/07/10 17:15:44;;;;;;;6.63;3.10;;;31.70;56.10;;;30.82;40.82;100141.19;12371267;23;96473;-89
2023/07/10 17:20:51;;;;;;;4.07;3.05;;;31.50;56.90;;;30.52;41.13;100167.22;12325500;23;96611;-89
2023/07/10 17:25:56;;;;;;;40.13;6.07;;;31.20;57.40;;;30.15;37.52;100164.59;12350278;23;96467;-91
2023/07/10 17:31:18;;;;;;;5.35;3.00;;;30.90;55.30;;;29.59;35.05;100182.66;12345065;23;97222;-89
2023/07/10 17:36:23;;;;;;;6.60;3.22;;;30.40;52.70;;;29.05;35.38;100183.84;12345899;23;96980;-88
2023/07/10 17:41:29;;;;;;;6.07;2.85;;;29.80;52.40;;;28.63;36.50;100176.31;12342946;23;96506;-87
2023/07/10 17:46:33;;;;;;;4.50;2.92;;;29.40;52.90;;;28.32;36.88;100170.31;12344062;23;96712;-87
2023/07/10 17:51:38;;;;;;;4.90;2.88;;;29.00;53.30;;;28.13;37.65;100176.44;12346235;23;96685;-87
2023/07/10 17:56:42;;;;;;;5.50;2.80;;;28.80;53.70;;;27.95;37.86;100160.75;12343449;23;96979;-87
2023/07/10 18:01:46;;;;;;;6.30;2.90;;;28.70;54.30;;;27.87;38.96;100115.72;12341659;23;96812;-87
2023/07/10 18:06:50;;;;;;;5.10;2.95;;;28.50;55.20;;;27.82;41.35;100129.41;12344179;23;97282;-87
2023/07/10 18:11:55;;;;;;;8.38;3.30;;;28.50;56.20;;;27.65;42.04;100192.56;12343726;23;96525;-88
2023/07/10 18:16:59;;;;;;;8.40;3.67;;;28.40;57.30;;;27.54;42.73;100192.91;12350616;23;96528;-87
2023/07/10 18:22:03;;;;;;;6.53;2.95;;;28.30;57.80;;;27.41;42.45;100197.06;12343547;23;96654;-87
2023/07/10 18:27:25;;;;;;;7.43;3.25;;;28.20;57.70;;;27.31;41.93;100191.63;12343555;23;96602;-87
2023/07/10 18:32:29;;;;;;;6.93;3.47;;;28.10;57.90;;;27.25;41.53;100187.28;12341866;23;98286;-87
2023/07/10 18:37:33;;;;;;;7.00;2.97;;;28.00;57.10;;;27.15;42.56;100190.84;12341520;23;96735;-87
2023/07/10 18:42:37;;;;;;;10.48;3.45;;;27.90;57.40;;;27.07;45.59;100183.25;12317522;23;96519;-87
2023/07/10 18:47:41;;;;;;;5.18;3.10;;;27.80;59.10;;;26.94;45.96;100177.25;12343339;23;96439;-87
2023/07/10 18:52:44;;;;;;;7.60;3.45;;;27.70;60.70;;;26.75;49.64;100202.63;12368275;23;96640;-86
2023/07/10 18:57:48;;;;;;;8.70;3.60;;;27.60;62.90;;;26.52;49.25;100215.75;12343258;23;96519;-87
2023/07/10 19:02:53;;;;;;;5.10;2.85;;;27.40;63.30;;;26.35;49.78;100215.16;12342443;23;96455;-87
2023/07/10 19:07:57;;;;;;;5.63;3.10;;;27.20;63.70;;;26.25;50.08;100231.50;12343009;23;96557;-88
2023/07/10 19:13:00;;;;;;;6.50;3.03;;;27.00;64.00;;;26.17;50.30;100249.19;12321340;23;97472;-88
2023/07/10 19:18:23;;;;;;;3.65;2.80;;;27.00;64.10;;;26.08;50.81;100259.78;12343675;23;96547;-88
2023/07/10 19:23:31;;;;;;;3.73;2.30;;;26.90;64.60;;;25.94;52.59;100291.34;12319374;23;96554;-88
2023/07/10 19:28:34;;;;;;;7.03;3.38;;;26.70;65.20;;;25.81;52.34;100284.50;12341654;23;96811;-89
2023/07/10 19:33:46;;;;;;;4.90;2.63;;;26.60;66.30;;;25.66;55.54;100289.81;12340261;23;96848;-88
2023/07/10 19:38:49;;;;;;;6.30;2.95;;;26.50;68.10;;;25.48;56.36;100301.97;12342361;23;96678;-88
2023/07/10 19:43:53;;;;;;;4.80;3.03;;;26.30;68.40;;;25.27;58.21;100279.31;12342248;23;96519;-88
2023/07/10 19:48:57;;;;;;;6.10;3.25;;;26.10;69.80;;;25.04;59.03;100294.06;12341108;23;96918;-88
2023/07/10 19:54:00;;;;;;;3.80;2.80;;;25.90;70.30;;;24.95;59.51;100281.22;12341692;23;96963;-88
2023/07/10 19:59:17;;;;;;;6.05;3.30;;;25.80;70.50;;;24.77;60.93;100280.56;12341335;23;97120;-89
2023/07/10 20:04:21;;;;;;;5.85;2.95;;;25.70;71.80;;;24.61;61.00;100267.91;12343103;23;96453;-88
2023/07/10 20:09:25;;;;;;;6.75;3.20;;;25.40;72.80;;;24.46;61.44;100248.75;12340829;23;96512;-88
2023/07/10 20:14:29;;;;;;;5.68;3.17;;;25.20;72.60;;;24.36;61.60;100240.53;12342155;23;96486;-87
2023/07/10 20:19:33;;;;;;;4.50;2.67;;;25.10;72.30;;;24.22;59.43;100234.66;12340976;23;96611;-89
2023/07/10 20:24:36;;;;;;;5.32;3.53;;;25.10;72.00;;;24.10;60.03;100229.38;12344053;23;96561;-88
2023/07/10 20:29:40;;;;;;;3.38;2.53;;;24.90;72.00;;;23.99;60.33;100231.19;12345126;23;97257;-88
2023/07/10 20:34:48;;;;;;;4.63;3.15;;;24.80;72.10;;;23.94;60.34;100239.28;12344649;23;96471;-88
2023/07/10 20:39:51;;;;;;;3.78;2.65;;;24.70;72.20;;;23.86;60.69;100230.75;12367507;23;96662;-88
2023/07/10 20:44:55;;;;;;;5.63;2.75;;;24.70;72.60;;;23.79;61.38;100238.28;12321113;23;96880;-88
2023/07/10 20:49:59;;;;;;;5.40;3.42;;;24.60;73.00;;;23.73;60.78;100208.38;12321176;23;96814;-88
2023/07/10 20:55:04;;;;;;;6.47;3.42;;;24.50;73.00;;;23.67;62.16;100217.53;12345649;23;96496;-88
2023/07/10 21:00:15;;;;;;;7.00;3.67;;;24.50;73.50;;;23.59;62.49;100223.38;12343586;23;96740;-88
2023/07/10 21:05:19;;;;;;;9.55;3.17;;;24.40;73.70;;;23.47;61.12;100192.84;12345077;23;96613;-87
2023/07/10 21:10:22;;;;;;;5.32;3.25;;;24.40;73.50;;;23.45;62.36;100186.84;12342883;23;96312;-89